createdAt,value
2023-04-17T00:01:28.505Z,9.47
2023-04-17T00:03:57.883Z,9.42
2023-04-17T00:06:27.200Z,9.40
2023-04-17T00:08:54.844Z,9.46
2023-04-17T00:11:21.783Z,9.39
2023-04-17T00:13:48.171Z,9.41
2023-04-17T00:16:14.680Z,9.40
2023-04-17T00:18:41.473Z,9.41
2023-04-17T00:21:08.040Z,9.42
2023-04-17T00:23:34.505Z,9.41
2023-04-17T00:26:01.553Z,9.40
2023-04-17T00:28:27.972Z,9.34
2023-04-17T00:30:54.524Z,9.36
2023-04-17T00:33:21.307Z,9.31
2023-04-17T00:35:48.268Z,9.30
2023-04-17T00:38:14.760Z,9.34
2023-04-17T00:40:42.088Z,9.35
2023-04-17T00:43:08.830Z,9.31
2023-04-17T00:45:35.736Z,9.26
2023-04-17T00:48:05.041Z,9.32
2023-04-17T00:50:31.802Z,9.32
2023-04-17T00:52:58.525Z,9.36
2023-04-17T00:55:26.468Z,9.31
2023-04-17T00:57:53.616Z,9.38
2023-04-17T01:00:20.126Z,9.32
2023-04-17T01:02:47.164Z,9.29
2023-04-17T01:05:14.842Z,9.24
2023-04-17T01:07:41.926Z,9.30
2023-04-17T01:10:09.948Z,9.28
2023-04-17T01:12:36.843Z,9.26
2023-04-17T01:15:04.574Z,9.29
2023-04-17T01:17:31.288Z,9.29
2023-04-17T01:19:58.549Z,9.28
2023-04-17T01:22:25.092Z,9.33
2023-04-17T01:24:52.972Z,9.37
2023-04-17T01:27:22.330Z,9.37
2023-04-17T01:29:49.460Z,9.34
2023-04-17T01:32:17.271Z,9.36
2023-04-17T01:34:44.399Z,9.33
2023-04-17T01:37:10.922Z,9.31
2023-04-17T01:39:37.576Z,9.23
2023-04-17T01:42:04.292Z,9.28
2023-04-17T01:44:30.832Z,9.30
2023-04-17T01:46:57.238Z,9.29
2023-04-17T01:49:23.892Z,9.30
2023-04-17T01:51:50.690Z,9.33
2023-04-17T01:54:17.194Z,9.33
2023-04-17T01:56:43.685Z,9.27
2023-04-17T01:59:10.942Z,9.31
2023-04-17T02:01:38.152Z,9.24
2023-04-17T02:04:05.015Z,9.24
2023-04-17T02:06:32.538Z,9.29
2023-04-17T02:08:59.888Z,9.26
2023-04-17T02:11:26.535Z,9.38
2023-04-17T02:13:53.449Z,9.31
2023-04-17T02:16:24.113Z,9.25
2023-04-17T02:18:51.628Z,9.20
2023-04-17T02:21:18.653Z,9.23
2023-04-17T02:23:45.838Z,9.20
2023-04-17T02:26:12.602Z,9.30
2023-04-17T02:28:39.519Z,9.29
2023-04-17T02:31:08.743Z,9.27
2023-04-17T02:33:36.704Z,9.27
2023-04-17T02:36:06.287Z,9.30
2023-04-17T02:38:33.291Z,9.24
2023-04-17T02:41:00.123Z,9.25
2023-04-17T02:43:26.682Z,9.19
2023-04-17T02:45:53.477Z,9.14
2023-04-17T02:48:20.257Z,9.16
2023-04-17T02:50:47.036Z,9.17
2023-04-17T02:53:13.851Z,9.19
2023-04-17T02:55:40.535Z,9.18
2023-04-17T02:58:07.044Z,9.22
2023-04-17T03:00:33.578Z,9.23
2023-04-17T03:03:00.943Z,9.18
2023-04-17T03:05:30.377Z,9.23
2023-04-17T03:08:00.232Z,9.27
2023-04-17T03:10:26.785Z,9.25
2023-04-17T03:12:53.484Z,9.20
2023-04-17T03:15:20.008Z,9.23
2023-04-17T03:17:46.845Z,9.20
2023-04-17T03:20:15.761Z,9.23
2023-04-17T03:22:42.609Z,9.21
2023-04-17T03:25:09.869Z,9.21
2023-04-17T03:27:36.468Z,9.18
2023-04-17T03:30:05.941Z,9.15
2023-04-17T03:32:32.873Z,9.15
2023-04-17T03:34:59.506Z,9.13
2023-04-17T03:37:26.175Z,9.13
2023-04-17T03:39:52.654Z,9.13
2023-04-17T03:42:21.316Z,9.10
2023-04-17T03:44:47.893Z,9.12
2023-04-17T03:47:14.324Z,9.13
2023-04-17T03:49:41.502Z,9.23
2023-04-17T03:52:08.105Z,9.18
2023-04-17T03:54:35.752Z,9.21
2023-04-17T03:57:03.819Z,9.18
2023-04-17T03:59:31.445Z,9.16
2023-04-17T04:01:58.160Z,9.19
2023-04-17T04:04:25.575Z,9.13
2023-04-17T04:06:54.356Z,9.09
2023-04-17T04:09:21.453Z,9.12
2023-04-17T04:11:48.131Z,9.07
2023-04-17T04:14:14.913Z,9.14
2023-04-17T04:16:42.140Z,9.14
2023-04-17T04:19:08.625Z,9.14
2023-04-17T04:21:35.383Z,9.09
2023-04-17T04:24:02.931Z,9.12
2023-04-17T04:26:29.517Z,9.26
2023-04-17T04:28:56.586Z,9.20
2023-04-17T04:31:25.454Z,9.12
2023-04-17T04:33:55.110Z,9.10
2023-04-17T04:36:22.861Z,9.15
2023-04-17T04:38:50.321Z,9.14
2023-04-17T04:41:17.669Z,9.14
2023-04-17T04:43:44.466Z,9.12
2023-04-17T04:46:12.276Z,9.17
2023-04-17T04:48:40.636Z,9.20
2023-04-17T04:51:08.955Z,9.18
2023-04-17T04:53:35.873Z,9.14
2023-04-17T04:56:02.477Z,9.16
2023-04-17T04:58:31.994Z,9.16
2023-04-17T05:00:58.653Z,9.13
2023-04-17T05:03:26.322Z,9.12
2023-04-17T05:05:52.888Z,9.13
2023-04-17T05:08:20.240Z,9.27
2023-04-17T05:10:46.768Z,9.22
2023-04-17T05:13:13.581Z,9.10
2023-04-17T05:15:41.375Z,9.11
2023-04-17T05:18:08.064Z,9.14
2023-04-17T05:20:34.577Z,9.16
2023-04-17T05:23:01.459Z,9.19
2023-04-17T05:25:28.000Z,9.21
2023-04-17T05:27:54.649Z,9.17
2023-04-17T05:30:21.128Z,9.20
2023-04-17T05:32:48.503Z,9.21
2023-04-17T05:35:14.959Z,9.15
2023-04-17T05:37:42.132Z,9.19
2023-04-17T05:40:09.670Z,9.21
2023-04-17T05:42:37.677Z,9.24
2023-04-17T05:45:04.962Z,9.22
2023-04-17T05:47:31.345Z,9.23
2023-04-17T05:49:58.787Z,9.14
2023-04-17T05:52:25.620Z,9.11
2023-04-17T05:54:52.127Z,9.18
2023-04-17T05:57:18.863Z,9.13
2023-04-17T05:59:46.886Z,9.13
2023-04-17T06:02:13.393Z,9.17
2023-04-17T06:04:41.399Z,9.20
2023-04-17T06:07:08.875Z,9.21
2023-04-17T06:09:36.712Z,9.26
2023-04-17T06:12:06.751Z,9.28
2023-04-17T06:14:33.220Z,9.37
2023-04-17T06:17:00.133Z,9.39
2023-04-17T06:19:27.065Z,9.41
2023-04-17T06:21:53.581Z,9.38
2023-04-17T06:24:20.311Z,9.41
2023-04-17T06:26:47.142Z,9.39
2023-04-17T06:29:15.416Z,9.43
2023-04-17T06:31:41.970Z,9.39
2023-04-17T06:34:08.747Z,9.48
2023-04-17T06:36:35.803Z,9.44
2023-04-17T06:39:03.139Z,9.59
2023-04-17T06:41:29.555Z,9.59
2023-04-17T06:43:56.233Z,9.77
2023-04-17T06:46:23.117Z,9.71
2023-04-17T06:48:52.165Z,9.69
2023-04-17T06:51:20.913Z,9.63
2023-04-17T06:53:50.002Z,9.61
2023-04-17T06:56:17.130Z,9.71
2023-04-17T06:58:46.669Z,9.69
2023-04-17T07:01:14.586Z,9.61
2023-04-17T07:03:43.021Z,9.79
2023-04-17T07:06:10.209Z,9.61
2023-04-17T07:08:37.257Z,9.57
2023-04-17T07:11:03.785Z,9.74
2023-04-17T07:13:32.878Z,9.62
2023-04-17T07:16:01.211Z,9.60
2023-04-17T07:18:29.712Z,9.56
2023-04-17T07:20:56.703Z,9.38
2023-04-17T07:23:23.623Z,9.38
2023-04-17T07:25:50.488Z,9.39
2023-04-17T07:28:17.510Z,9.33
2023-04-17T07:30:44.131Z,9.38
2023-04-17T07:33:10.613Z,9.42
2023-04-17T07:35:37.902Z,9.41
2023-04-17T07:38:04.810Z,9.48
2023-04-17T07:40:31.961Z,9.38
2023-04-17T07:42:58.645Z,9.37
2023-04-17T07:45:29.370Z,9.48
2023-04-17T07:47:56.434Z,9.65
2023-04-17T07:50:23.559Z,9.61
2023-04-17T07:52:50.473Z,9.62
2023-04-17T07:55:17.050Z,9.72
2023-04-17T07:57:46.461Z,10.22
2023-04-17T08:00:14.495Z,10.38
2023-04-17T08:02:42.581Z,10.51
2023-04-17T08:05:09.961Z,10.53
2023-04-17T08:07:36.914Z,10.68
2023-04-17T08:10:04.762Z,11.27
2023-04-17T08:12:31.789Z,11.21
2023-04-17T08:14:58.299Z,11.42
2023-04-17T08:17:26.012Z,11.71
2023-04-17T08:19:57.490Z,11.92
2023-04-17T08:22:25.972Z,11.50
2023-04-17T08:24:57.726Z,11.77
2023-04-17T08:27:25.509Z,11.93
2023-04-17T08:29:55.676Z,12.38
2023-04-17T08:32:22.726Z,12.47
2023-04-17T08:34:49.444Z,12.16
2023-04-17T08:37:16.057Z,11.85
2023-04-17T08:39:42.636Z,11.22
2023-04-17T08:42:18.415Z,11.06
2023-04-17T08:44:45.580Z,11.16
2023-04-17T08:47:13.554Z,11.08
2023-04-17T08:49:43.391Z,11.45
2023-04-17T08:52:10.800Z,11.57
2023-04-17T08:54:38.332Z,12.76
2023-04-17T08:57:05.565Z,14.05
2023-04-17T08:59:32.434Z,13.88
2023-04-17T09:02:07.161Z,13.39
2023-04-17T09:04:38.732Z,13.02
2023-04-17T09:07:06.540Z,13.30
2023-04-17T09:09:53.381Z,12.62
2023-04-17T09:12:24.630Z,12.25
2023-04-17T09:14:51.931Z,12.44
2023-04-17T09:17:19.859Z,13.62
2023-04-17T09:20:08.858Z,14.39
2023-04-17T09:22:37.891Z,13.82
2023-04-17T09:25:05.141Z,13.21
2023-04-17T09:27:32.297Z,13.24
2023-04-17T09:30:03.289Z,13.43
2023-04-17T09:32:32.017Z,13.55
2023-04-17T09:35:01.979Z,13.53
2023-04-17T09:37:51.108Z,15.07
2023-04-17T09:40:19.144Z,15.15
2023-04-17T09:43:00.921Z,13.96
2023-04-17T09:45:35.201Z,13.30
2023-04-17T09:48:08.148Z,12.97
2023-04-17T09:50:36.633Z,12.83
2023-04-17T09:53:07.075Z,13.19
2023-04-17T09:55:36.406Z,14.40
2023-04-17T09:58:05.232Z,14.67
2023-04-17T10:00:32.220Z,15.09
2023-04-17T10:02:59.506Z,14.46
2023-04-17T10:05:28.917Z,13.94
2023-04-17T10:07:56.735Z,13.16
2023-04-17T10:10:25.652Z,12.80
2023-04-17T10:12:56.501Z,15.05
2023-04-17T10:15:24.795Z,15.13
2023-04-17T10:17:52.704Z,17.89
2023-04-17T10:20:20.008Z,18.56
2023-04-17T10:22:54.620Z,18.95
2023-04-17T10:25:28.920Z,17.85
2023-04-17T10:27:58.388Z,15.99
2023-04-17T10:30:53.955Z,18.05
2023-04-17T10:33:23.036Z,21.21
2023-04-17T10:35:50.711Z,20.45
2023-04-17T10:38:31.506Z,22.32
2023-04-17T10:41:02.487Z,22.21
2023-04-17T10:43:29.518Z,21.42
2023-04-17T10:46:11.389Z,19.32
2023-04-17T10:48:52.430Z,16.73
2023-04-17T10:51:26.988Z,15.70
2023-04-17T10:53:59.244Z,15.08
2023-04-17T10:56:38.967Z,15.04
2023-04-17T10:59:11.571Z,16.42
2023-04-17T11:01:58.077Z,16.70
2023-04-17T11:04:28.428Z,16.50
2023-04-17T11:06:55.682Z,16.39
2023-04-17T11:09:24.749Z,21.54
2023-04-17T11:11:51.472Z,20.52
2023-04-17T11:14:20.791Z,18.78
2023-04-17T11:16:49.093Z,17.76
2023-04-17T11:19:23.562Z,16.98
2023-04-17T11:21:52.287Z,16.11
2023-04-17T11:24:31.873Z,15.03
2023-04-17T11:27:00.612Z,15.25
2023-04-17T11:29:27.798Z,16.15
2023-04-17T11:31:56.286Z,16.09
2023-04-17T11:34:24.857Z,15.70
2023-04-17T11:36:52.996Z,14.76
2023-04-17T11:39:21.311Z,14.30
2023-04-17T11:41:47.982Z,14.35
2023-04-17T11:44:16.798Z,14.27
2023-04-17T11:46:49.710Z,14.41
2023-04-17T11:49:17.095Z,14.77
2023-04-17T11:51:47.397Z,14.69
2023-04-17T11:54:35.853Z,14.80
2023-04-17T11:57:13.450Z,15.23
2023-04-17T11:59:45.991Z,14.95
2023-04-17T12:02:13.163Z,15.94
2023-04-17T12:04:40.422Z,15.53
2023-04-17T12:07:08.324Z,14.78
2023-04-17T12:09:36.355Z,14.69
2023-04-17T12:12:07.554Z,14.63
2023-04-17T12:14:34.637Z,14.69
2023-04-17T12:17:01.091Z,15.00
2023-04-17T12:19:29.365Z,15.39
2023-04-17T12:21:57.278Z,15.15
2023-04-17T12:24:24.683Z,15.08
2023-04-17T12:26:52.595Z,15.15
2023-04-17T12:29:29.054Z,14.68
2023-04-17T12:31:59.579Z,14.51
2023-04-17T12:34:27.789Z,14.25
2023-04-17T12:36:54.608Z,14.11
2023-04-17T12:39:21.200Z,13.91
2023-04-17T12:41:47.952Z,13.79
2023-04-17T12:44:14.746Z,13.87
2023-04-17T12:46:41.622Z,13.74
2023-04-17T12:49:08.701Z,13.78
2023-04-17T12:51:37.771Z,13.70
2023-04-17T12:54:04.762Z,13.72
2023-04-17T12:56:31.494Z,13.93
2023-04-17T12:58:59.387Z,13.95
2023-04-17T13:01:28.226Z,13.80
2023-04-17T13:03:55.392Z,13.76
2023-04-17T13:06:21.988Z,13.66
2023-04-17T13:08:48.526Z,13.73
2023-04-17T13:11:15.137Z,13.67
2023-04-17T13:13:41.679Z,13.68
2023-04-17T13:16:09.734Z,13.83
2023-04-17T13:18:36.313Z,13.77
2023-04-17T13:21:03.307Z,13.90
2023-04-17T13:23:30.442Z,13.84
2023-04-17T13:25:57.111Z,14.06
2023-04-17T13:28:23.585Z,14.04
2023-04-17T13:30:50.370Z,14.38
2023-04-17T13:33:17.052Z,14.86
2023-04-17T13:35:43.558Z,14.92
2023-04-17T13:38:10.203Z,15.06
2023-04-17T13:40:38.357Z,15.32
2023-04-17T13:43:06.556Z,15.21
2023-04-17T13:45:33.065Z,15.98
2023-04-17T13:48:00.167Z,16.48
2023-04-17T13:50:27.065Z,17.06
2023-04-17T13:52:53.692Z,17.40
2023-04-17T13:55:20.138Z,17.35
2023-04-17T13:57:46.663Z,17.35
2023-04-17T14:00:13.875Z,17.98
2023-04-17T14:02:40.678Z,17.19
2023-04-17T14:05:07.605Z,16.89
2023-04-17T14:07:34.183Z,15.76
2023-04-17T14:10:00.676Z,15.70
2023-04-17T14:12:27.083Z,15.49
2023-04-17T14:14:53.587Z,15.13
2023-04-17T14:17:20.549Z,15.02
2023-04-17T14:19:47.237Z,15.32
2023-04-17T14:22:14.137Z,15.04
2023-04-17T14:24:40.660Z,15.24
2023-04-17T14:27:07.158Z,15.45
2023-04-17T14:29:33.727Z,15.29
2023-04-17T14:32:00.245Z,15.06
2023-04-17T14:34:26.932Z,15.02
2023-04-17T14:39:20.523Z,14.96
2023-04-17T14:41:47.178Z,15.03
2023-04-17T14:44:13.901Z,14.72
2023-04-17T14:46:40.570Z,14.92
2023-04-17T14:49:07.775Z,14.93
2023-04-17T14:51:34.269Z,14.71
2023-04-17T14:54:00.983Z,14.87
2023-04-17T14:56:27.487Z,14.90
2023-04-17T14:58:53.940Z,14.80
2023-04-17T15:01:20.568Z,14.65
2023-04-17T15:03:48.616Z,14.72
2023-04-17T15:06:16.391Z,14.67
2023-04-17T15:08:43.376Z,14.72
2023-04-17T15:11:10.338Z,14.53
2023-04-17T15:13:39.363Z,14.52
2023-04-17T15:16:06.446Z,14.44
2023-04-17T15:18:35.953Z,14.52
2023-04-17T15:21:02.675Z,14.30
2023-04-17T15:23:29.823Z,14.23
2023-04-17T15:25:57.738Z,14.27
2023-04-17T15:28:25.256Z,14.20
2023-04-17T15:30:51.881Z,14.12
2023-04-17T15:33:18.482Z,14.16
2023-04-17T15:35:44.989Z,14.13
2023-04-17T15:38:11.922Z,14.15
2023-04-17T15:40:38.470Z,14.20
2023-04-17T15:43:05.121Z,14.17
2023-04-17T15:45:32.003Z,14.25
2023-04-17T15:47:58.532Z,14.47
2023-04-17T15:50:25.107Z,14.78
2023-04-17T15:52:51.878Z,14.90
2023-04-17T15:55:18.625Z,14.99
2023-04-17T15:57:46.050Z,14.58
2023-04-17T16:00:12.692Z,14.59
2023-04-17T16:02:39.689Z,14.60
2023-04-17T16:05:06.361Z,14.36
2023-04-17T16:07:32.818Z,14.59
2023-04-17T16:09:59.833Z,15.11
2023-04-17T16:12:28.253Z,14.85
2023-04-17T16:14:54.744Z,15.33
2023-04-17T16:17:21.340Z,15.16
2023-04-17T16:19:50.378Z,15.45
2023-04-17T16:22:18.253Z,15.64
2023-04-17T16:24:44.848Z,15.75
2023-04-17T16:27:11.491Z,15.21
2023-04-17T16:29:37.923Z,15.06
2023-04-17T16:32:04.447Z,14.69
2023-04-17T16:34:31.026Z,14.44
2023-04-17T16:36:57.393Z,14.38
2023-04-17T16:39:24.017Z,14.33
2023-04-17T16:41:52.128Z,14.19
2023-04-17T16:44:18.684Z,14.07
2023-04-17T16:47:05.508Z,13.98
2023-04-17T16:49:32.142Z,13.95
2023-04-17T16:51:59.181Z,13.86
2023-04-17T16:54:26.077Z,13.85
2023-04-17T16:56:52.794Z,13.82
2023-04-17T16:59:19.343Z,13.67
2023-04-17T17:01:47.136Z,13.56
2023-04-17T17:04:13.709Z,13.60
2023-04-17T17:06:40.321Z,13.58
2023-04-17T17:09:07.253Z,13.65
2023-04-17T17:11:33.868Z,13.68
2023-04-17T17:14:00.882Z,13.66
2023-04-17T17:16:27.702Z,13.63
2023-04-17T17:18:54.494Z,13.57
2023-04-17T17:21:21.218Z,13.54
2023-04-17T17:23:49.064Z,13.58
2023-04-17T17:26:16.974Z,13.53
2023-04-17T17:28:44.177Z,13.49
2023-04-17T17:31:10.874Z,13.39
2023-04-17T17:33:37.839Z,13.45
2023-04-17T17:36:04.614Z,13.38
2023-04-17T17:38:32.598Z,13.32
2023-04-17T17:40:59.616Z,13.27
2023-04-17T17:43:29.089Z,13.23
2023-04-17T17:45:55.714Z,13.16
2023-04-17T17:48:22.391Z,13.12
2023-04-17T17:50:53.557Z,13.03
2023-04-17T17:53:21.480Z,12.99
2023-04-17T17:55:56.018Z,12.86
2023-04-17T17:58:23.113Z,12.79
2023-04-17T18:00:50.417Z,12.81
2023-04-17T18:03:17.963Z,12.74
2023-04-17T18:05:46.250Z,12.68
2023-04-17T18:08:13.661Z,12.44
2023-04-17T18:10:40.137Z,12.26
2023-04-17T18:13:06.751Z,11.94
2023-04-17T18:15:33.471Z,11.76
2023-04-17T18:18:00.360Z,11.47
2023-04-17T18:20:27.124Z,11.26
2023-04-17T18:22:54.112Z,11.28
2023-04-17T18:25:20.727Z,11.01
2023-04-17T18:27:47.176Z,10.82
2023-04-17T18:30:14.385Z,10.74
2023-04-17T18:32:41.506Z,10.59
2023-04-17T18:35:08.662Z,10.48
2023-04-17T18:37:35.447Z,10.48
2023-04-17T18:40:01.961Z,10.29
2023-04-17T18:42:28.497Z,10.19
2023-04-17T18:44:55.858Z,10.10
2023-04-17T18:47:22.423Z,10.04
2023-04-17T18:49:52.095Z,9.90
2023-04-17T18:52:19.008Z,9.83
2023-04-17T18:54:45.379Z,9.73
2023-04-17T18:57:11.972Z,9.68
2023-04-17T18:59:38.551Z,9.62
2023-04-17T19:02:06.180Z,9.56
2023-04-17T19:04:32.830Z,9.46
2023-04-17T19:06:59.497Z,9.40
2023-04-17T19:09:26.939Z,9.38
2023-04-17T19:11:54.696Z,9.40
2023-04-17T19:14:21.264Z,9.34
2023-04-17T19:16:54.534Z,9.20
2023-04-17T19:19:21.845Z,9.04
2023-04-17T19:21:49.531Z,9.00
2023-04-17T19:24:16.341Z,8.98
2023-04-17T19:26:43.113Z,8.87
2023-04-17T19:29:09.537Z,8.83
2023-04-17T19:31:37.358Z,8.74
2023-04-17T19:34:06.733Z,8.67
2023-04-17T19:36:33.652Z,8.55
2023-04-17T19:39:01.443Z,8.51
2023-04-17T19:41:28.446Z,8.47
2023-04-17T19:43:56.302Z,8.37
2023-04-17T19:46:24.436Z,8.35
2023-04-17T19:48:53.652Z,8.43
2023-04-17T19:51:24.456Z,8.37
2023-04-17T19:54:11.972Z,8.32
2023-04-17T19:56:39.384Z,8.33
2023-04-17T19:59:06.347Z,8.30
2023-04-17T20:01:36.820Z,8.23
2023-04-17T20:04:04.794Z,8.12
2023-04-17T20:06:33.572Z,8.13
2023-04-17T20:09:19.996Z,8.13
2023-04-17T20:11:47.359Z,8.04
2023-04-17T20:14:19.478Z,8.09
2023-04-17T20:16:49.831Z,8.05
2023-04-17T20:19:17.628Z,8.08
2023-04-17T20:21:44.213Z,8.15
2023-04-17T20:24:12.844Z,8.21
2023-04-17T20:26:39.425Z,8.26
2023-04-17T20:29:06.201Z,8.19
2023-04-17T20:31:36.150Z,8.29
2023-04-17T20:34:03.513Z,8.23
2023-04-17T20:36:31.202Z,8.00
2023-04-17T20:38:57.597Z,7.95
2023-04-17T20:41:23.957Z,7.92
2023-04-17T20:44:00.003Z,7.95
2023-04-17T20:46:28.209Z,7.90
2023-04-17T20:48:55.380Z,7.78
2023-04-17T20:51:25.013Z,7.93
2023-04-17T20:53:52.732Z,7.87
2023-04-17T20:56:21.207Z,7.84
2023-04-17T20:58:47.942Z,7.72
2023-04-17T21:01:15.540Z,7.79
2023-04-17T21:03:42.970Z,7.71
2023-04-17T21:06:09.655Z,7.62
2023-04-17T21:08:36.094Z,7.77
2023-04-17T21:11:02.584Z,7.82
2023-04-17T21:13:30.586Z,7.86
2023-04-17T21:15:57.139Z,7.87
2023-04-17T21:18:24.239Z,7.92
2023-04-17T21:20:50.918Z,7.86
2023-04-17T21:23:17.554Z,7.76
2023-04-17T21:25:43.972Z,7.70
2023-04-17T21:28:11.829Z,7.57
2023-04-17T21:30:38.283Z,7.58
2023-04-17T21:33:04.926Z,7.54
2023-04-17T21:35:31.410Z,7.48
2023-04-17T21:37:58.241Z,7.41
2023-04-17T21:40:26.037Z,7.26
2023-04-17T21:42:53.025Z,7.69
2023-04-17T21:45:20.080Z,7.52
2023-04-17T21:47:46.544Z,7.52
2023-04-17T21:50:13.083Z,7.65
2023-04-17T21:52:39.691Z,7.74
2023-04-17T21:55:07.670Z,7.77
2023-04-17T21:57:35.194Z,7.66
2023-04-17T22:00:03.522Z,7.61
2023-04-17T22:02:30.719Z,7.55
2023-04-17T22:04:57.856Z,7.55
2023-04-17T22:07:24.515Z,7.54
2023-04-17T22:09:51.671Z,7.63
2023-04-17T22:12:20.413Z,7.59
2023-04-17T22:14:48.016Z,7.62
2023-04-17T22:17:15.523Z,7.63
2023-04-17T22:19:42.897Z,7.63
2023-04-17T22:22:09.305Z,7.53
2023-04-17T22:24:36.450Z,7.59
2023-04-17T22:27:03.149Z,7.49
2023-04-17T22:29:29.814Z,7.52
2023-04-17T22:31:56.135Z,7.57
2023-04-17T22:34:22.615Z,7.56
2023-04-17T22:36:49.106Z,7.56
2023-04-17T22:39:16.783Z,7.53
2023-04-17T22:41:43.186Z,7.47
2023-04-17T22:44:09.684Z,7.51
2023-04-17T22:46:36.646Z,7.47
2023-04-17T22:49:05.510Z,7.50
2023-04-17T22:51:32.718Z,7.48
2023-04-17T22:54:01.588Z,7.52
2023-04-17T22:56:32.259Z,7.40
2023-04-17T22:58:58.826Z,7.27
2023-04-17T23:01:25.693Z,7.27
2023-04-17T23:03:52.988Z,7.26
2023-04-17T23:06:23.324Z,7.24
2023-04-17T23:08:50.270Z,7.23
2023-04-17T23:11:17.284Z,7.19
2023-04-17T23:13:43.956Z,7.13
2023-04-17T23:16:11.057Z,7.16
2023-04-17T23:18:38.005Z,7.02
2023-04-17T23:21:04.887Z,6.87
2023-04-17T23:23:31.479Z,6.86
2023-04-17T23:25:58.225Z,6.69
2023-04-17T23:28:30.318Z,6.66
2023-04-17T23:30:57.871Z,6.57
2023-04-17T23:33:26.663Z,6.43
2023-04-17T23:35:53.411Z,6.44
2023-04-17T23:38:20.190Z,6.29
2023-04-17T23:40:47.336Z,6.26
2023-04-17T23:43:13.932Z,6.17
2023-04-17T23:45:40.457Z,6.21
2023-04-17T23:48:07.167Z,6.23
2023-04-17T23:50:33.927Z,6.13
2023-04-17T23:53:00.925Z,6.09
2023-04-17T23:55:29.737Z,6.13
2023-04-17T23:57:57.136Z,6.22
